Auburn, NY

8:05 PM EST on December 24, 2014 (GMT -0500)
Green Hill Farm | Change Station
CLOSE
Current Station
Personal Weather Station
Location: Scipio Center, NY
Elevation: 968 ft
Nearby Weather Stations
Active Advisory: Wind Advisory

Elev 968 ft 42.82 °N, 76.59 °W | Updated 50 seconds ago

Overcast
Overcast
53.5 °F
Feels Like 53.5 °F
N
7.0
Wind Variable Wind from WSW
Gusts 8.0 mph

Today
High -- | Low -- °F
--% Chance of Precip.
Yesterday
High -- | Low -- °F
Precip. -- in
7:35 AM 4:36 PM
Waxing Crescent, 12% visible
Pressure 29.42 in
Visibility 10.0 miles
Clouds Mostly Cloudy 2000 ft
Overcast 14000 ft
Dew Point 52 °F
Humidity 94%
Rainfall 0.15 in
Snow Depth Not available.
UV 0 out of 12
Pollen .10 out of 12
Air Quality Not available.
Flu Activity Not available.
METAR KSYR 250054Z 05003KT 10SM BKN020 OVC140 10/09 A2942 RMK AO2 SLP962 T01000089 $

More Conditions Fewer Conditions

Pressure 29.42 in
Visibility 10.0 miles
Clouds Mostly Cloudy 2000 ft
Overcast 14000 ft
Dew Point 52 °F
Humidity 94%
Rainfall 0.15 in
Snow Depth Not available.
UV 0 out of 12
Pollen .10 out of 12
Air Quality Not available.
Flu Activity Not available.
METAR KSYR 250054Z 05003KT 10SM BKN020 OVC140 10/09 A2942 RMK AO2 SLP962 T01000089 $

More Conditions Fewer Conditions

10-Day Weather Forecast

Almanac

Astronomy

Dec. 24, 2014 Rise Set
Actual Time
Civil Twilight
Nautical Twilight
Astronomical Twilight
Moon
Length of Visible Light
Length of Day
Tomorrow will be .
, % of the Moon is Illuminated

Today's Extremes

State Highs State Lows

Community

WunderPhotos

Upload Photos

1,780,199 photos uploaded!

WunderBlogs® & News

Nearby

Air Quality

  Air Quality AQ Index Pollutant
Not available.

Snow Depth

Station Depth Elevation

Earthquake Activity

City Distance Mag. Time & Date
Minimum magnitude displayed is 2.5.

Coastal Water Temperatures

Place Temperature

Nearby Weather Stations